Terminal Aerodrome Forecast
Issued by NWS Austin/San Antonio, TX

Home | Current Version | Previous Version | Text Only | Print | Product List | Glossary On
Versions: 1 2 3 4 5 6 7 8 9 10 11 12 13 14 15 16 17 18
000
FTUS44 KEWX 211128
TAFAUS
TAF
KAUS 211128Z 2112/2218 17006KT P6SM FEW010 FEW250
     FM211500 19008KT P6SM FEW040 SCT250
     FM221100 18002KT P6SM SCT015 SCT250
     FM221530 18008KT P6SM SCT040 SCT250=

USA.gov is the U.S. government's official web portal to all federal, state and local government web resources and services.